Time;durP1;ratioP1;P1;durP2;ratioP2;P2;SDS_P1;SDS_P2;PMS_P1;PMS_P2;Temp;Humidity;BMP_temperature;BMP_pressure;BME280_temperature;BME280_humidity;BME280_pressure;Samples;Min_cycle;Max_cycle;Signal;HPM_P1;HPM_P2
2021/01/31 00:01:47;;;;;;;28.80;7.57;;;20.50;67.40;;;;;;5020654;28;128941;-80
2021/01/31 00:04:13;;;;;;;28.70;7.25;;;20.50;67.30;;;;;;5022224;28;112628;-78
2021/01/31 00:06:40;;;;;;;23.77;6.93;;;20.60;67.80;;;;;;5009413;28;101131;-80
2021/01/31 00:09:05;;;;;;;31.20;6.70;;;20.50;67.60;;;;;;5008773;28;130746;-78
2021/01/31 00:11:31;;;;;;;18.38;6.07;;;20.60;67.50;;;;;;5008883;28;129010;-81
2021/01/31 00:13:57;;;;;;;23.95;7.03;;;20.60;67.70;;;;;;5003108;28;101007;-80
2021/01/31 00:16:23;;;;;;;22.42;6.55;;;20.70;67.80;;;;;;5003647;28;101221;-82
2021/01/31 00:18:48;;;;;;;27.42;6.70;;;20.60;67.50;;;;;;5004052;28;129910;-82
2021/01/31 00:21:14;;;;;;;28.25;7.75;;;20.70;67.60;;;;;;5003977;28;129261;-81
2021/01/31 00:23:39;;;;;;;20.77;6.80;;;20.80;67.70;;;;;;4988698;28;111054;-83
2021/01/31 00:26:05;;;;;;;23.48;6.70;;;20.70;67.40;;;;;;4970368;28;109619;-82
2021/01/31 00:28:31;;;;;;;17.27;7.13;;;20.80;67.30;;;;;;4970273;28;100648;-82
2021/01/31 00:30:57;;;;;;;19.00;7.35;;;20.70;65.80;;;;;;5002164;28;130438;-81
2021/01/31 00:33:26;;;;;;;19.45;6.80;;;20.80;66.20;;;;;;5003567;28;101226;-81
2021/01/31 00:35:52;;;;;;;21.83;6.80;;;20.80;66.50;;;;;;5020497;28;100957;-82
2021/01/31 00:38:19;;;;;;;22.77;7.38;;;20.80;66.60;;;;;;4983264;28;103527;-80
2021/01/31 00:40:46;;;;;;;22.17;6.88;;;20.90;66.60;;;;;;4989030;28;101063;-79
2021/01/31 00:43:12;;;;;;;20.88;6.20;;;20.80;66.60;;;;;;5001247;28;102142;-78
2021/01/31 00:45:37;;;;;;;24.80;7.20;;;20.90;66.80;;;;;;4982640;28;101523;-78
2021/01/31 00:48:03;;;;;;;25.83;6.72;;;20.90;66.80;;;;;;4978455;28;102076;-80
2021/01/31 00:50:32;;;;;;;17.83;7.22;;;20.90;66.80;;;;;;4982879;28;115326;-81
2021/01/31 00:52:57;;;;;;;18.23;6.28;;;20.80;66.70;;;;;;5000146;28;101052;-81
2021/01/31 00:55:33;;;;;;;20.88;6.03;;;20.80;66.70;;;;;;4982411;28;101296;-84
2021/01/31 00:58:12;;;;;;;21.55;6.25;;;20.80;66.90;;;;;;4979990;28;102149;-84
2021/01/31 01:07:54;;;;;;;25.20;7.03;;;20.60;68.00;;;;;;5019510;28;100775;-87
2021/01/31 01:10:46;;;;;;;41.90;8.48;;;20.60;68.40;;;;;;4997490;28;101051;-87
2021/01/31 01:14:09;;;;;;;44.72;8.25;;;20.60;68.90;;;;;;4968659;28;100906;-87
2021/01/31 01:17:06;;;;;;;58.25;9.82;;;20.50;69.00;;;;;;5026296;28;100497;-88
2021/01/31 01:20:00;;;;;;;51.13;9.82;;;20.50;69.50;;;;;;5001150;28;100953;-87
2021/01/31 01:23:10;;;;;;;52.65;10.23;;;20.40;68.80;;;;;;5000197;28;101022;-87
2021/01/31 01:26:15;;;;;;;55.07;10.80;;;20.40;69.60;;;;;;5019053;28;102576;-87
2021/01/31 01:32:43;;;;;;;;;;;;;;;;;;;;;
2021/01/31 01:35:34;;;;;;;50.63;11.23;;;20.30;69.20;;;;;;5002078;28;129714;-88
2021/01/31 01:38:25;;;;;;;48.38;12.20;;;20.30;69.80;;;;;;5014949;28;100874;-87
2021/01/31 01:40:59;;;;;;;49.60;11.50;;;20.20;69.60;;;;;;5001924;28;101291;-88
2021/01/31 01:44:07;;;;;;;61.85;12.25;;;20.20;70.30;;;;;;4981865;28;101294;-87
2021/01/31 01:46:50;;;;;;;59.80;12.93;;;20.20;70.20;;;;;;4880527;28;105942;-87
2021/01/31 01:49:22;;;;;;;72.47;12.68;;;20.10;71.50;;;;;;4977973;28;102793;-88
2021/01/31 01:52:04;;;;;;;56.33;12.82;;;20.20;72.10;;;;;;4978636;28;100930;-88
2021/01/31 01:54:36;;;;;;;48.13;13.10;;;20.10;71.80;;;;;;4979650;28;100922;-89
2021/01/31 01:57:47;;;;;;;50.55;12.43;;;20.10;72.50;;;;;;4972866;28;104274;-89
2021/01/31 02:00:13;;;;;;;46.00;10.57;;;20.10;73.20;;;;;;5014724;28;102492;-89
2021/01/31 02:03:19;;;;;;;53.80;11.43;;;20.10;73.20;;;;;;4971820;28;101196;-88
2021/01/31 02:05:49;;;;;;;52.55;11.63;;;20.10;73.90;;;;;;4994490;28;101192;-88
2021/01/31 02:12:06;;;;;;;;;;;;;;;;;;;;;
2021/01/31 02:14:44;;;;;;;48.40;12.23;;;20.00;73.20;;;;;;4997438;28;111764;-88
2021/01/31 02:17:48;;;;;;;39.75;10.52;;;20.00;73.00;;;;;;4998587;28;100910;-89
2021/01/31 02:21:01;;;;;;;39.25;10.27;;;20.00;72.70;;;;;;4915791;28;103845;-90
2021/01/31 02:24:02;;;;;;;49.97;11.10;;;20.00;72.70;;;;;;5013751;28;102833;-88
2021/01/31 02:26:27;;;;;;;44.40;10.65;;;19.90;72.50;;;;;;5006516;28;101025;-88
2021/01/31 02:29:17;;;;;;;43.40;10.60;;;19.90;72.50;;;;;;5000299;28;100973;-88
2021/01/31 02:31:58;;;;;;;40.70;11.80;;;19.90;72.50;;;;;;5001878;28;103594;-89
2021/01/31 02:34:55;;;;;;;32.80;9.98;;;19.90;72.50;;;;;;4984462;28;103042;-88
2021/01/31 02:37:56;;;;;;;37.13;10.32;;;19.80;72.40;;;;;;5002717;28;100760;-90
2021/01/31 02:40:52;;;;;;;37.88;10.13;;;19.80;72.40;;;;;;4992337;28;101006;-88
2021/01/31 02:43:22;;;;;;;34.17;9.55;;;19.80;72.20;;;;;;4978070;28;102785;-88
2021/01/31 02:45:58;;;;;;;30.90;9.68;;;19.80;72.10;;;;;;4987928;28;102655;-88
2021/01/31 02:48:29;;;;;;;40.47;10.20;;;19.80;72.10;;;;;;4982392;28;101096;-89
2021/01/31 02:51:00;;;;;;;36.03;9.35;;;19.70;72.20;;;;;;4995399;28;101012;-88
2021/01/31 02:54:01;;;;;;;35.70;9.05;;;19.70;72.40;;;;;;5002170;28;100978;-89
2021/01/31 02:56:31;;;;;;;37.03;10.13;;;19.70;72.40;;;;;;5007883;28;101636;-89
2021/01/31 02:59:07;;;;;;;;;;;19.70;72.40;;;;;;4992950;28;100835;-87
2021/01/31 03:02:06;;;;;;;27.83;8.85;;;19.70;72.30;;;;;;5002386;28;101075;-88
2021/01/31 03:04:43;;;;;;;33.30;9.30;;;19.70;72.40;;;;;;4997586;28;102860;-88
2021/01/31 03:07:30;;;;;;;40.30;9.77;;;19.70;73.00;;;;;;5013539;28;101093;-90
2021/01/31 03:10:13;;;;;;;29.75;9.05;;;19.70;72.80;;;;;;4981256;28;100937;-88
2021/01/31 03:12:51;;;;;;;31.88;9.75;;;19.60;72.60;;;;;;4966536;28;100991;-88
2021/01/31 03:15:22;;;;;;;37.53;9.73;;;19.60;72.60;;;;;;4966276;28;103268;-87
2021/01/31 03:18:33;;;;;;;41.90;10.35;;;19.60;73.10;;;;;;4988954;28;101319;-88
2021/01/31 03:21:05;;;;;;;35.83;9.48;;;19.60;74.00;;;;;;4920206;28;100999;-87
2021/01/31 03:23:49;;;;;;;42.15;9.80;;;19.60;73.90;;;;;;4990625;28;101333;-87
2021/01/31 03:26:38;;;;;;;30.60;9.32;;;19.60;73.50;;;;;;4981333;28;102095;-85
2021/01/31 03:29:04;;;;;;;29.10;8.88;;;19.60;73.70;;;;;;4989531;28;100925;-86
2021/01/31 03:31:30;;;;;;;36.50;9.30;;;19.60;73.70;;;;;;5002833;28;100972;-87
2021/01/31 03:34:01;;;;;;;33.65;9.20;;;19.60;73.70;;;;;;4999998;28;101040;-85
2021/01/31 03:36:27;;;;;;;29.10;8.48;;;19.60;73.90;;;;;;5001143;28;101763;-83
2021/01/31 03:38:53;;;;;;;27.83;8.82;;;19.60;73.90;;;;;;4999456;28;100821;-83
2021/01/31 03:41:39;;;;;;;30.75;8.88;;;19.60;73.90;;;;;;4980152;28;100910;-83
2021/01/31 03:44:09;;;;;;;29.90;9.07;;;19.60;74.00;;;;;;4983255;28;101543;-84
2021/01/31 03:46:46;;;;;;;26.88;8.13;;;19.60;73.90;;;;;;4975332;28;100969;-84
2021/01/31 03:49:20;;;;;;;27.33;8.57;;;19.50;73.90;;;;;;4989686;28;101349;-83
2021/01/31 03:51:46;;;;;;;28.67;8.40;;;19.50;74.10;;;;;;5015892;28;100609;-84
2021/01/31 03:54:12;;;;;;;25.05;8.50;;;19.50;74.00;;;;;;4980933;28;100985;-83
2021/01/31 03:56:43;;;;;;;25.92;7.90;;;19.50;74.10;;;;;;5005224;28;114640;-87
2021/01/31 03:59:09;;;;;;;25.83;7.78;;;19.50;74.70;;;;;;5034003;28;101061;-82
2021/01/31 04:01:37;;;;;;;28.90;8.13;;;19.50;74.30;;;;;;5001621;28;101002;-84
2021/01/31 04:04:17;;;;;;;22.35;8.13;;;19.50;74.10;;;;;;5005884;28;101346;-83
2021/01/31 04:06:43;;;;;;;28.55;8.38;;;19.50;74.00;;;;;;5000587;28;103210;-84
2021/01/31 04:09:08;;;;;;;22.45;7.82;;;19.50;74.00;;;;;;4980550;28;108230;-84
2021/01/31 04:11:39;;;;;;;33.25;8.05;;;19.40;74.00;;;;;;4999068;28;100718;-84
2021/01/31 04:14:24;;;;;;;28.00;8.13;;;19.40;74.50;;;;;;4979744;28;101287;-85
2021/01/31 04:16:50;;;;;;;27.48;7.82;;;19.50;74.30;;;;;;5010439;28;101012;-83
2021/01/31 04:19:16;;;;;;;26.35;7.60;;;19.50;74.60;;;;;;5001341;28;101066;-82
2021/01/31 04:21:45;;;;;;;23.10;7.55;;;19.50;74.60;;;;;;5017901;28;101064;-88
2021/01/31 04:24:11;;;;;;;35.58;9.15;;;19.50;74.30;;;;;;5019118;28;101267;-85
2021/01/31 04:26:37;;;;;;;25.85;8.00;;;19.40;74.20;;;;;;5011969;28;102149;-83
2021/01/31 04:29:02;;;;;;;28.33;7.90;;;19.40;74.40;;;;;;5003638;28;101244;-84
2021/01/31 04:31:28;;;;;;;23.67;8.43;;;19.40;74.60;;;;;;5001511;28;101079;-84
2021/01/31 04:33:54;;;;;;;21.85;7.63;;;19.40;74.30;;;;;;4997989;28;101170;-85
2021/01/31 04:36:20;;;;;;;30.48;8.20;;;19.40;74.40;;;;;;4998239;28;113290;-85
2021/01/31 04:38:54;;;;;;;28.33;7.43;;;19.40;74.20;;;;;;4980403;28;101215;-84
2021/01/31 04:41:19;;;;;;;26.60;8.13;;;19.40;74.50;;;;;;4999295;28;100909;-83
2021/01/31 04:43:47;;;;;;;22.25;7.15;;;19.40;74.50;;;;;;4963729;28;101395;-83
2021/01/31 04:46:21;;;;;;;25.00;7.43;;;19.40;74.50;;;;;;5002495;28;101038;-83
2021/01/31 04:49:06;;;;;;;24.70;7.03;;;19.40;74.20;;;;;;4981455;28;101865;-83
2021/01/31 04:51:43;;;;;;;22.30;6.75;;;19.40;74.40;;;;;;4999184;28;100948;-83
2021/01/31 04:54:24;;;;;;;24.23;6.97;;;19.40;74.20;;;;;;5010414;28;100969;-84
2021/01/31 04:57:13;;;;;;;21.77;7.07;;;19.40;74.40;;;;;;5016528;28;101117;-83
2021/01/31 04:59:44;;;;;;;23.10;7.32;;;19.40;74.20;;;;;;4985917;28;102206;-85
2021/01/31 05:02:36;;;;;;;22.13;7.13;;;19.40;74.30;;;;;;4995446;28;101295;-85
2021/01/31 05:05:02;;;;;;;21.00;7.32;;;19.40;74.30;;;;;;5002829;28;101167;-82
2021/01/31 05:07:33;;;;;;;23.73;7.05;;;19.40;74.20;;;;;;5010608;28;100974;-83
2021/01/31 05:09:59;;;;;;;23.60;6.82;;;19.40;74.40;;;;;;4995450;28;101020;-83
2021/01/31 05:12:46;;;;;;;18.70;6.55;;;19.40;74.60;;;;;;5010762;28;101014;-83
2021/01/31 05:15:18;;;;;;;22.38;6.85;;;19.40;74.70;;;;;;5012784;28;101014;-83
2021/01/31 05:17:44;;;;;;;27.77;7.50;;;19.40;74.80;;;;;;4994969;28;101346;-83
2021/01/31 05:20:10;;;;;;;21.80;7.45;;;19.40;75.00;;;;;;5006913;28;100850;-81
2021/01/31 05:22:41;;;;;;;22.27;7.20;;;19.40;75.00;;;;;;5014897;28;100960;-84
2021/01/31 05:25:10;;;;;;;17.63;6.20;;;19.40;75.10;;;;;;4995509;28;101158;-83
2021/01/31 05:27:35;;;;;;;19.10;5.72;;;19.30;75.00;;;;;;4982280;28;103142;-85
2021/01/31 05:30:01;;;;;;;17.80;6.78;;;19.30;75.10;;;;;;4996697;28;101552;-84
2021/01/31 05:32:27;;;;;;;20.63;6.60;;;19.30;75.10;;;;;;5025328;28;100969;-85
2021/01/31 05:34:56;;;;;;;18.05;6.72;;;19.30;75.00;;;;;;5008521;28;100877;-83
2021/01/31 05:37:27;;;;;;;22.55;6.88;;;19.30;75.10;;;;;;4994775;28;101579;-83
2021/01/31 05:40:07;;;;;;;17.27;6.85;;;19.30;75.00;;;;;;4970708;28;103537;-83
2021/01/31 05:42:40;;;;;;;19.45;5.97;;;19.30;75.00;;;;;;5014600;28;100951;-85
2021/01/31 05:45:33;;;;;;;16.27;6.57;;;19.30;75.00;;;;;;5013013;28;101035;-85
2021/01/31 05:47:59;;;;;;;26.88;6.50;;;19.40;75.10;;;;;;4983478;28;104841;-84
2021/01/31 05:50:40;;;;;;;19.35;6.03;;;19.30;75.00;;;;;;5002757;28;101587;-85
2021/01/31 05:53:28;;;;;;;16.98;6.45;;;19.30;75.20;;;;;;4995284;28;101158;-84
2021/01/31 05:56:16;;;;;;;17.33;6.47;;;19.30;75.30;;;;;;5017007;28;101879;-86
2021/01/31 05:58:42;;;;;;;22.63;6.53;;;19.30;75.30;;;;;;5015553;28;103268;-84
2021/01/31 06:01:09;;;;;;;21.20;6.40;;;19.30;75.30;;;;;;5013069;28;102875;-84
2021/01/31 06:03:35;;;;;;;16.05;5.97;;;19.30;75.30;;;;;;4998924;28;100413;-85
2021/01/31 06:06:21;;;;;;;13.88;5.40;;;19.30;75.50;;;;;;5024118;28;101199;-84
2021/01/31 06:08:55;;;;;;;15.30;5.97;;;19.30;75.30;;;;;;5016086;28;101722;-84
2021/01/31 06:11:31;;;;;;;16.38;5.95;;;19.30;75.40;;;;;;4980636;28;100873;-85
2021/01/31 06:14:06;;;;;;;19.27;6.10;;;19.30;75.50;;;;;;4996519;28;101081;-85
2021/01/31 06:16:32;;;;;;;21.65;6.10;;;19.30;75.50;;;;;;4998322;28;101035;-83
2021/01/31 06:18:58;;;;;;;13.05;5.38;;;19.30;75.70;;;;;;4998660;28;101525;-87
2021/01/31 06:21:41;;;;;;;14.20;5.70;;;19.30;75.60;;;;;;5015302;28;100868;-84
2021/01/31 06:24:36;;;;;;;16.40;6.38;;;19.30;75.50;;;;;;4988803;28;101066;-86
2021/01/31 06:27:02;;;;;;;16.90;5.88;;;19.30;75.40;;;;;;4991635;28;101008;-82
2021/01/31 06:29:46;;;;;;;15.40;6.05;;;19.30;75.40;;;;;;4991826;28;101653;-83
2021/01/31 06:32:25;;;;;;;12.30;5.20;;;19.30;75.40;;;;;;5011577;28;100921;-82
2021/01/31 06:35:04;;;;;;;12.73;5.73;;;19.30;75.30;;;;;;5012466;28;101195;-85
2021/01/31 06:37:55;;;;;;;14.38;5.65;;;19.20;75.20;;;;;;5009745;28;101267;-83
2021/01/31 06:40:52;;;;;;;13.52;5.32;;;19.30;75.40;;;;;;4997425;28;102281;-83
2021/01/31 06:43:24;;;;;;;13.52;5.38;;;19.20;75.20;;;;;;5004959;28;100909;-82
2021/01/31 06:46:11;;;;;;;16.05;5.85;;;19.30;75.30;;;;;;5013491;28;100269;-83
2021/01/31 06:49:04;;;;;;;13.27;5.22;;;19.30;75.10;;;;;;5017928;28;100953;-85
2021/01/31 06:51:58;;;;;;;13.27;5.28;;;19.20;75.40;;;;;;5014215;28;102056;-84
2021/01/31 06:54:45;;;;;;;14.43;5.30;;;19.20;75.50;;;;;;5015463;28;101014;-82
2021/01/31 06:57:28;;;;;;;12.27;4.93;;;19.20;75.50;;;;;;5001981;28;101067;-84
2021/01/31 07:00:03;;;;;;;13.70;5.10;;;19.20;75.70;;;;;;5009691;28;101495;-85
2021/01/31 07:02:56;;;;;;;18.50;5.53;;;19.20;75.50;;;;;;5032125;27;101105;-85
2021/01/31 07:05:32;;;;;;;13.18;5.22;;;19.20;75.50;;;;;;5018322;28;102035;-82
2021/01/31 07:08:33;;;;;;;14.40;5.70;;;19.20;75.50;;;;;;5019500;28;101043;-83
2021/01/31 07:11:17;;;;;;;12.30;5.30;;;19.20;75.40;;;;;;5002557;28;101278;-83
2021/01/31 07:13:59;;;;;;;16.65;5.68;;;19.10;75.30;;;;;;5011979;28;102140;-86
2021/01/31 07:16:37;;;;;;;9.57;4.75;;;19.20;75.50;;;;;;5012652;28;101087;-83
2021/01/31 07:19:37;;;;;;;16.05;5.35;;;19.20;75.50;;;;;;5019542;28;101193;-83
2021/01/31 07:22:12;;;;;;;12.23;4.97;;;19.10;75.40;;;;;;4964041;28;101171;-82
2021/01/31 07:25:07;;;;;;;13.93;4.82;;;19.20;75.60;;;;;;4987862;28;102845;-85
2021/01/31 07:27:53;;;;;;;12.55;5.25;;;19.20;76.00;;;;;;5008096;28;101095;-84
2021/01/31 07:30:39;;;;;;;14.68;5.30;;;19.20;75.70;;;;;;5020646;28;101228;-84
2021/01/31 07:33:23;;;;;;;16.50;5.85;;;19.30;75.90;;;;;;5004741;28;100875;-84
2021/01/31 07:35:58;;;;;;;12.07;4.82;;;19.30;75.80;;;;;;5005155;28;101267;-82
2021/01/31 07:38:43;;;;;;;14.07;5.30;;;19.40;76.00;;;;;;5011776;28;103122;-85
2021/01/31 07:41:11;;;;;;;14.60;4.65;;;19.40;75.90;;;;;;5013073;28;100952;-84
2021/01/31 07:43:37;;;;;;;13.98;5.22;;;19.50;75.80;;;;;;4990844;28;100872;-84
2021/01/31 07:46:08;;;;;;;12.90;5.00;;;19.50;76.00;;;;;;4999020;28;101581;-82
2021/01/31 07:48:51;;;;;;;8.80;4.45;;;19.60;75.80;;;;;;5000273;28;101117;-84
2021/01/31 07:51:40;;;;;;;13.10;4.85;;;19.70;75.60;;;;;;5020554;28;101147;-81
2021/01/31 07:54:33;;;;;;;14.30;5.22;;;19.80;75.70;;;;;;5010266;28;101082;-83
2021/01/31 07:57:33;;;;;;;20.98;6.25;;;19.80;75.80;;;;;;5003207;28;102183;-82
2021/01/31 07:59:59;;;;;;;16.17;5.53;;;19.90;75.60;;;;;;5004428;28;100907;-84
2021/01/31 08:02:55;;;;;;;11.60;5.00;;;19.90;76.00;;;;;;5016892;28;100906;-84
2021/01/31 08:06:05;;;;;;;17.42;5.35;;;20.00;76.10;;;;;;4998629;28;101161;-83
2021/01/31 08:09:03;;;;;;;15.57;5.30;;;20.10;76.00;;;;;;5000058;28;105637;-84
2021/01/31 08:11:29;;;;;;;20.05;5.68;;;20.10;75.90;;;;;;4958382;28;101791;-84
2021/01/31 08:13:55;;;;;;;18.02;5.30;;;20.20;76.00;;;;;;4998714;28;101003;-85
2021/01/31 08:16:47;;;;;;;15.30;5.85;;;20.30;75.80;;;;;;5004201;28;101382;-84
2021/01/31 08:19:21;;;;;;;11.45;5.35;;;20.30;75.30;;;;;;5010749;28;101102;-86
2021/01/31 08:21:48;;;;;;;14.73;5.30;;;20.40;75.50;;;;;;5003370;28;100549;-87
2021/01/31 08:24:53;;;;;;;18.70;5.13;;;20.40;74.80;;;;;;4999675;28;101515;-90
2021/01/31 08:27:25;;;;;;;14.00;4.90;;;20.50;73.40;;;;;;5000305;28;101231;-87
2021/01/31 08:29:58;;;;;;;19.60;5.70;;;20.60;74.20;;;;;;4984582;28;103826;-87
2021/01/31 08:32:30;;;;;;;20.08;6.10;;;20.70;75.20;;;;;;5001980;28;101178;-88
2021/01/31 08:35:08;;;;;;;19.67;6.22;;;20.70;74.20;;;;;;4983592;28;100872;-87
2021/01/31 08:37:34;;;;;;;17.05;5.18;;;20.80;73.60;;;;;;4985915;28;101109;-90
2021/01/31 08:40:00;;;;;;;20.42;6.25;;;20.80;73.70;;;;;;4982576;28;103100;-86
2021/01/31 08:42:25;;;;;;;15.95;6.03;;;20.80;72.90;;;;;;4983005;28;103915;-87
2021/01/31 08:44:54;;;;;;;21.55;5.65;;;20.90;72.80;;;;;;4983494;28;101489;-86
2021/01/31 08:47:23;;;;;;;24.52;6.22;;;20.90;72.60;;;;;;4983721;28;101060;-86
2021/01/31 08:50:03;;;;;;;18.70;5.72;;;21.00;71.80;;;;;;4983117;28;103766;-89
2021/01/31 08:52:29;;;;;;;15.25;5.65;;;21.10;72.00;;;;;;4982264;28;103970;-87
2021/01/31 08:54:59;;;;;;;13.63;5.55;;;21.10;72.10;;;;;;5002064;28;100949;-88
2021/01/31 08:57:58;;;;;;;14.07;5.22;;;21.20;71.30;;;;;;4985987;28;101484;-86
2021/01/31 09:00:25;;;;;;;12.63;5.18;;;21.30;71.20;;;;;;4988276;28;103224;-85
2021/01/31 09:02:54;;;;;;;18.40;5.40;;;21.30;70.80;;;;;;4998707;28;103671;-87
2021/01/31 09:05:20;;;;;;;15.45;5.22;;;21.40;70.60;;;;;;4975421;28;101325;-86
2021/01/31 09:08:10;;;;;;;17.67;5.90;;;21.40;70.30;;;;;;5013198;28;101098;-85
2021/01/31 09:11:06;;;;;;;17.05;5.65;;;21.50;70.10;;;;;;5000728;27;102004;-86
2021/01/31 09:13:40;;;;;;;14.13;4.63;;;21.50;70.30;;;;;;4999337;28;101531;-85
2021/01/31 09:16:30;;;;;;;17.88;5.43;;;21.60;70.10;;;;;;5019355;28;101581;-85
2021/01/31 09:19:19;;;;;;;14.45;4.82;;;21.70;69.90;;;;;;4991963;28;101192;-86
2021/01/31 09:21:48;;;;;;;13.90;4.78;;;21.80;69.40;;;;;;5017846;28;101558;-86
2021/01/31 09:24:18;;;;;;;17.50;5.07;;;21.90;69.30;;;;;;4991666;28;101199;-87
2021/01/31 09:27:16;;;;;;;16.75;4.97;;;22.00;69.00;;;;;;5000813;28;101054;-87
2021/01/31 09:29:41;;;;;;;18.08;5.53;;;22.00;68.60;;;;;;4980178;28;100918;-87
2021/01/31 09:32:25;;;;;;;17.85;5.32;;;22.20;68.50;;;;;;4965291;28;103336;-87
2021/01/31 09:34:52;;;;;;;15.38;5.72;;;22.20;68.10;;;;;;4966325;28;104101;-89
2021/01/31 09:37:24;;;;;;;16.65;4.78;;;22.30;67.90;;;;;;4980749;28;100362;-88
2021/01/31 09:44:02;;;;;;;18.40;4.85;;;22.40;67.50;;;;;;5003714;28;101041;-88
2021/01/31 09:46:53;;;;;;;17.13;5.70;;;22.50;67.10;;;;;;4945188;28;101433;-90
2021/01/31 09:49:22;;;;;;;17.80;5.60;;;22.60;66.70;;;;;;4937192;28;100340;-91
2021/01/31 09:58:49;;;;;;;19.40;5.63;;;22.70;64.90;;;;;;5015720;28;100790;-87
2021/01/31 10:01:22;;;;;;;18.52;5.55;;;22.70;63.80;;;;;;4999089;28;101100;-87
2021/01/31 10:04:37;;;;;;;17.05;5.30;;;22.60;63.60;;;;;;4972294;28;101184;-88
2021/01/31 10:07:13;;;;;;;26.67;6.60;;;22.50;63.00;;;;;;4994308;28;102386;-86
2021/01/31 10:09:43;;;;;;;26.02;7.78;;;22.50;63.10;;;;;;4962013;28;102601;-88
2021/01/31 10:12:24;;;;;;;27.45;8.65;;;22.00;55.90;;;;;;4964301;28;100829;-89
2021/01/31 10:15:14;;;;;;;19.83;8.43;;;20.90;53.90;;;;;;4967011;28;100957;-90
2021/01/31 10:17:45;;;;;;;20.63;8.02;;;20.20;49.70;;;;;;4996474;28;103530;-90
2021/01/31 10:20:34;;;;;;;16.83;7.40;;;20.00;51.20;;;;;;4984243;28;102799;-88
2021/01/31 10:23:23;;;;;;;16.90;7.68;;;19.60;48.50;;;;;;5020257;28;100958;-89
2021/01/31 10:26:02;;;;;;;13.40;7.07;;;19.30;48.00;;;;;;5003408;28;101094;-89
2021/01/31 10:28:47;;;;;;;11.57;6.93;;;19.40;47.10;;;;;;4984271;28;103569;-88
2021/01/31 10:31:30;;;;;;;14.95;7.47;;;19.10;46.30;;;;;;4982605;28;102248;-89
2021/01/31 10:34:01;;;;;;;11.85;7.85;;;18.80;45.20;;;;;;4999619;28;101277;-90
2021/01/31 10:36:47;;;;;;;10.02;6.28;;;18.50;46.50;;;;;;4988734;28;100285;-90
2021/01/31 10:39:25;;;;;;;15.40;7.60;;;18.60;45.40;;;;;;4985903;28;103116;-90
2021/01/31 10:41:51;;;;;;;30.52;8.13;;;18.60;45.40;;;;;;5013805;28;102055;-88
2021/01/31 10:44:20;;;;;;;14.63;7.30;;;18.60;46.40;;;;;;4998005;28;100934;-82
2021/01/31 10:46:46;;;;;;;11.38;6.88;;;18.60;44.80;;;;;;5012062;28;101383;-83
2021/01/31 10:49:11;;;;;;;9.80;6.30;;;18.50;45.00;;;;;;4983312;28;104738;-84
2021/01/31 10:51:40;;;;;;;10.07;6.20;;;18.50;45.20;;;;;;4997286;28;101390;-85
2021/01/31 10:54:06;;;;;;;9.30;6.30;;;18.60;45.60;;;;;;4986171;28;100924;-86
2021/01/31 10:56:34;;;;;;;7.97;6.38;;;18.60;44.80;;;;;;4998572;28;101003;-84
2021/01/31 10:59:03;;;;;;;13.15;6.35;;;18.30;44.60;;;;;;4985602;28;104913;-88
2021/01/31 11:01:32;;;;;;;17.55;6.22;;;18.80;48.20;;;;;;4990455;28;101531;-86
2021/01/31 11:04:26;;;;;;;20.98;6.28;;;19.60;49.50;;;;;;5007424;28;101234;-88
2021/01/31 11:06:52;;;;;;;19.52;6.15;;;20.30;50.40;;;;;;5020617;28;100939;-87
2021/01/31 11:09:18;;;;;;;15.10;5.35;;;20.70;50.80;;;;;;4989329;28;103357;-86
2021/01/31 11:11:45;;;;;;;10.75;4.90;;;20.90;50.00;;;;;;4987314;28;102922;-87
2021/01/31 11:14:11;;;;;;;13.88;5.40;;;21.00;50.70;;;;;;5014532;28;101452;-85
2021/01/31 11:16:37;;;;;;;21.65;5.72;;;21.20;51.50;;;;;;4968869;28;101497;-86
2021/01/31 11:19:03;;;;;;;18.55;5.25;;;21.40;51.90;;;;;;5003763;28;101031;-84
2021/01/31 11:21:28;;;;;;;16.23;5.82;;;21.70;52.90;;;;;;5000953;28;101006;-85
2021/01/31 11:23:55;;;;;;;15.48;5.40;;;21.80;52.60;;;;;;4983878;28;100801;-87
2021/01/31 11:26:25;;;;;;;16.77;5.85;;;21.90;53.50;;;;;;4987169;28;100379;-85
2021/01/31 11:28:51;;;;;;;20.30;5.43;;;22.10;53.50;;;;;;4977372;28;103684;-84
2021/01/31 11:31:17;;;;;;;12.50;4.70;;;22.20;53.20;;;;;;4980266;28;102445;-84
2021/01/31 11:33:43;;;;;;;16.77;5.07;;;22.30;54.20;;;;;;5031724;27;100870;-86
2021/01/31 11:36:09;;;;;;;18.05;5.63;;;22.40;54.10;;;;;;5001820;28;101102;-85
2021/01/31 11:38:35;;;;;;;46.42;10.60;;;22.30;52.60;;;;;;5005407;28;103449;-86
2021/01/31 11:41:01;;;;;;;26.48;8.93;;;22.10;53.90;;;;;;4985834;28;102520;-88
2021/01/31 11:43:26;;;;;;;31.45;9.27;;;22.30;53.70;;;;;;4986983;28;101087;-85
2021/01/31 11:45:52;;;;;;;31.48;9.68;;;22.30;52.90;;;;;;5002607;28;100798;-88
2021/01/31 11:48:26;;;;;;;40.15;11.02;;;22.40;53.40;;;;;;4988653;28;104896;-89
2021/01/31 11:50:52;;;;;;;59.45;12.48;;;22.40;53.60;;;;;;4983617;28;100961;-88
2021/01/31 11:53:21;;;;;;;34.97;9.50;;;22.50;54.60;;;;;;4968422;28;100847;-88
2021/01/31 11:55:54;;;;;;;44.73;10.07;;;22.50;54.40;;;;;;4983705;28;101081;-89
2021/01/31 11:58:38;;;;;;;35.53;9.50;;;22.50;54.50;;;;;;4988672;28;102473;-91
2021/01/31 12:02:05;;;;;;;37.15;9.15;;;22.40;54.50;;;;;;4989388;28;101167;-89
2021/01/31 12:05:00;;;;;;;37.65;9.90;;;22.50;54.50;;;;;;4985664;28;100909;-91
2021/01/31 12:07:26;;;;;;;33.83;8.57;;;22.60;55.50;;;;;;4981482;28;100375;-85
2021/01/31 12:10:01;;;;;;;35.55;10.00;;;22.60;55.10;;;;;;5010199;28;102828;-89
2021/01/31 12:12:27;;;;;;;33.35;8.73;;;22.70;54.10;;;;;;4995311;28;103081;-87
2021/01/31 12:14:52;;;;;;;37.22;8.55;;;22.60;54.40;;;;;;5003759;28;101072;-88
2021/01/31 12:17:18;;;;;;;32.45;8.38;;;22.70;55.10;;;;;;4997342;28;100432;-87
2021/01/31 12:19:44;;;;;;;34.33;9.43;;;22.70;54.50;;;;;;4992084;28;103640;-87
2021/01/31 12:22:48;;;;;;;29.58;8.90;;;22.30;48.20;;;;;;4991262;28;104132;-91
2021/01/31 12:32:52;;;;;;;21.88;7.70;;;20.10;43.20;;;;;;4981111;28;101296;-92
2021/01/31 12:55:49;;;;;;;9.27;6.40;;;19.30;37.80;;;;;;4984927;28;100997;-91
2021/01/31 12:58:30;;;;;;;20.65;6.43;;;19.30;39.80;;;;;;4964500;28;103933;-89
2021/01/31 13:07:21;;;;;;;18.30;5.32;;;21.10;44.00;;;;;;5000264;28;102246;-80
2021/01/31 13:09:47;;;;;;;12.73;4.95;;;21.30;45.30;;;;;;4975146;28;103953;-81
2021/01/31 13:12:12;;;;;;;26.30;6.25;;;21.40;46.10;;;;;;5007153;28;101085;-84
2021/01/31 13:14:38;;;;;;;19.85;5.90;;;21.50;46.70;;;;;;4981452;28;113687;-80
2021/01/31 13:17:04;;;;;;;16.55;5.43;;;21.50;46.60;;;;;;5005055;28;100490;-81
2021/01/31 13:19:29;;;;;;;13.82;4.85;;;21.80;46.80;;;;;;4994548;28;120487;-81
2021/01/31 13:21:55;;;;;;;15.48;4.97;;;21.70;47.70;;;;;;5004801;28;114456;-79
2021/01/31 13:24:21;;;;;;;19.42;5.20;;;21.80;48.50;;;;;;4969992;28;112846;-81
2021/01/31 13:26:57;;;;;;;18.75;5.82;;;22.00;49.10;;;;;;4965800;28;101410;-81
2021/01/31 13:29:22;;;;;;;11.63;5.03;;;21.90;49.10;;;;;;4998481;28;103373;-81
2021/01/31 13:31:48;;;;;;;15.13;5.00;;;21.90;49.20;;;;;;4975225;28;128319;-78
2021/01/31 13:34:14;;;;;;;11.98;4.93;;;21.90;48.90;;;;;;4994173;28;101118;-82
2021/01/31 13:36:43;;;;;;;10.00;4.65;;;21.80;49.40;;;;;;4974997;28;101643;-84
2021/01/31 13:39:09;;;;;;;20.02;5.50;;;21.80;50.40;;;;;;4961875;28;103422;-82
2021/01/31 13:41:35;;;;;;;14.80;4.82;;;21.80;50.20;;;;;;5002901;28;124883;-84
2021/01/31 13:44:00;;;;;;;10.32;4.60;;;21.90;50.10;;;;;;4971073;28;100684;-82
2021/01/31 13:46:26;;;;;;;24.33;5.40;;;21.90;50.30;;;;;;4974330;28;101037;-83
2021/01/31 13:48:52;;;;;;;26.83;6.28;;;22.00;50.50;;;;;;5000760;28;101680;-85
2021/01/31 13:51:18;;;;;;;21.90;5.60;;;22.00;51.10;;;;;;5002573;28;101019;-84
2021/01/31 13:53:43;;;;;;;20.00;5.97;;;22.20;51.50;;;;;;4995068;28;104868;-86
2021/01/31 13:56:12;;;;;;;29.42;6.03;;;22.20;51.80;;;;;;4991878;28;101694;-85
2021/01/31 13:58:38;;;;;;;21.30;5.75;;;22.10;51.70;;;;;;4965373;28;104207;-82
2021/01/31 14:01:15;;;;;;;31.02;6.20;;;22.20;52.30;;;;;;4997085;28;100925;-84
2021/01/31 14:03:41;;;;;;;33.03;7.03;;;22.20;52.70;;;;;;4999247;28;101223;-84
2021/01/31 14:06:09;;;;;;;27.75;6.57;;;22.20;52.70;;;;;;4972380;28;100940;-87
2021/01/31 14:08:35;;;;;;;28.35;6.75;;;22.20;53.20;;;;;;4978472;28;104304;-85
2021/01/31 14:11:12;;;;;;;28.23;5.72;;;22.20;53.50;;;;;;5000749;28;102814;-85
2021/01/31 14:14:05;;;;;;;25.55;6.20;;;22.10;53.50;;;;;;5017527;28;101134;-88